BBA weather

Balmaceda Airport
Balmaceda, Aysén Region, Chile

Public forecast

Using degrees Celsius for public forecast. Weather courtesy of forecast.io.

Current aviation weather report (METAR) for Balmaceda Airport

Report is more than 6 hours old.

Retrieved 2020/05/31 21:20 UTC (9 hours ago):

SCBA 312120Z 09004KT 0400 VCFG VV003 M01/M01 Q1022

Aviation forecast (TAF) for Balmaceda Airport

Retrieved 2020/06/01 06:00 UTC (4 minutes ago):

TAF SCBA 010430Z 0106/0206 VRB02KT 9999 SCT010 BKN030 TNM01/0106Z TX07/0118Z BECMG 0110/0112 30015KT TEMPO 0122/0202 8000 -RA SCT008 BKN020 BECMG 0204/0206 30005KT